CEP7 weather

Elk Point Health Care Centre Heliport
Elk Point, Alberta, Canada

Public forecast

Using degrees Celsius for public forecast. Weather courtesy of forecast.io.

Closest aviation weather report (METAR) to Elk Point Health Care Centre Heliport

Closest report is CFB Cold Lake, 37.6 nm (69.7 km) NE. Retrieved 2019/10/13 23:00 UTC (44 minutes ago):

CYOD 132300Z 04004KT 15SM FEW040 OVC085 07/M00 A2983 RMK SC2AC6 VIRGA SLP122

Closest aviation forecast (TAF) to Elk Point Health Care Centre Heliport

Closest forecast is CFB Cold Lake, 37.6 nm (69.7 km) NE. Retrieved 2019/10/13 18:35 UTC (5 hours ago):

TAF CYOD 131730Z 1318/1418 VRB03KT P6SM BKN090 BKN140 OVC250 TEMPO 1319/1403 P6SM -RA FM140300 06005KT P6SM -RA SCT012 BKN030 OVC080 FM140800 07005KT 3SM -RA BR SCT006 OVC012 PROB30 1408/1415 1SM -RA BR OVC006 FM141500 02010KT 5SM -RA BR SCT010 OVC020 RMK NXT FCST BY 140000Z